sensor_id;sensor_type;location;lat;lon;timestamp;P1;durP1;ratioP1;P2;durP2;ratioP2
50417;SDS011;36346;48.280;14.292;2022-07-23T00:00:47;13.01;;;13.01;;
50417;SDS011;36346;48.280;14.292;2022-07-23T00:03:15;12.60;;;12.60;;
50417;SDS011;36346;48.280;14.292;2022-07-23T00:05:43;12.96;;;12.96;;
50417;SDS011;36346;48.280;14.292;2022-07-23T00:08:11;13.38;;;13.38;;
50417;SDS011;36346;48.280;14.292;2022-07-23T00:10:42;13.29;;;13.29;;
50417;SDS011;36346;48.280;14.292;2022-07-23T00:13:10;13.04;;;13.04;;
50417;SDS011;36346;48.280;14.292;2022-07-23T00:15:38;12.99;;;12.99;;
50417;SDS011;36346;48.280;14.292;2022-07-23T00:18:06;13.29;;;13.29;;
50417;SDS011;36346;48.280;14.292;2022-07-23T00:20:34;12.82;;;12.82;;
50417;SDS011;36346;48.280;14.292;2022-07-23T00:23:02;13.16;;;13.16;;
50417;SDS011;36346;48.280;14.292;2022-07-23T00:25:30;13.43;;;13.43;;
50417;SDS011;36346;48.280;14.292;2022-07-23T00:27:59;13.15;;;13.15;;
50417;SDS011;36346;48.280;14.292;2022-07-23T00:30:29;13.66;;;13.66;;
50417;SDS011;36346;48.280;14.292;2022-07-23T00:32:59;12.94;;;12.94;;
50417;SDS011;36346;48.280;14.292;2022-07-23T00:35:30;13.15;;;13.15;;
50417;SDS011;36346;48.280;14.292;2022-07-23T00:38:00;13.38;;;13.38;;
50417;SDS011;36346;48.280;14.292;2022-07-23T00:40:30;13.69;;;13.69;;
50417;SDS011;36346;48.280;14.292;2022-07-23T00:42:58;13.54;;;13.54;;
50417;SDS011;36346;48.280;14.292;2022-07-23T00:45:27;13.59;;;13.59;;
50417;SDS011;36346;48.280;14.292;2022-07-23T00:47:56;13.93;;;13.93;;
50417;SDS011;36346;48.280;14.292;2022-07-23T00:50:24;14.33;;;14.33;;
50417;SDS011;36346;48.280;14.292;2022-07-23T00:52:52;13.86;;;13.86;;
50417;SDS011;36346;48.280;14.292;2022-07-23T00:55:21;13.95;;;13.95;;
50417;SDS011;36346;48.280;14.292;2022-07-23T00:57:49;13.84;;;13.84;;
50417;SDS011;36346;48.280;14.292;2022-07-23T01:00:18;14.29;;;14.29;;
50417;SDS011;36346;48.280;14.292;2022-07-23T01:02:46;13.96;;;13.96;;
50417;SDS011;36346;48.280;14.292;2022-07-23T01:05:15;14.28;;;14.28;;
50417;SDS011;36346;48.280;14.292;2022-07-23T01:07:45;14.31;;;14.31;;
50417;SDS011;36346;48.280;14.292;2022-07-23T01:10:14;14.45;;;14.45;;
50417;SDS011;36346;48.280;14.292;2022-07-23T01:13:08;14.37;;;14.37;;
50417;SDS011;36346;48.280;14.292;2022-07-23T01:15:38;14.31;;;14.31;;
50417;SDS011;36346;48.280;14.292;2022-07-23T01:18:07;14.06;;;14.06;;
50417;SDS011;36346;48.280;14.292;2022-07-23T01:20:37;13.99;;;13.99;;
50417;SDS011;36346;48.280;14.292;2022-07-23T01:23:06;14.04;;;14.04;;
50417;SDS011;36346;48.280;14.292;2022-07-23T01:25:35;14.18;;;14.18;;
50417;SDS011;36346;48.280;14.292;2022-07-23T01:28:05;13.82;;;13.82;;
50417;SDS011;36346;48.280;14.292;2022-07-23T01:30:33;13.89;;;13.89;;
50417;SDS011;36346;48.280;14.292;2022-07-23T01:33:06;14.47;;;14.47;;
50417;SDS011;36346;48.280;14.292;2022-07-23T01:35:34;14.12;;;14.12;;
50417;SDS011;36346;48.280;14.292;2022-07-23T01:38:05;14.01;;;14.01;;
50417;SDS011;36346;48.280;14.292;2022-07-23T01:40:38;14.08;;;14.08;;
50417;SDS011;36346;48.280;14.292;2022-07-23T01:43:08;14.26;;;14.26;;
50417;SDS011;36346;48.280;14.292;2022-07-23T01:45:38;14.29;;;14.29;;
50417;SDS011;36346;48.280;14.292;2022-07-23T01:48:06;14.52;;;14.52;;
50417;SDS011;36346;48.280;14.292;2022-07-23T01:50:42;13.47;;;13.47;;
50417;SDS011;36346;48.280;14.292;2022-07-23T01:53:33;13.77;;;13.77;;
50417;SDS011;36346;48.280;14.292;2022-07-23T01:56:02;14.01;;;14.01;;
50417;SDS011;36346;48.280;14.292;2022-07-23T01:58:31;14.06;;;14.06;;
50417;SDS011;36346;48.280;14.292;2022-07-23T02:00:59;13.68;;;13.68;;
50417;SDS011;36346;48.280;14.292;2022-07-23T02:03:27;14.07;;;14.07;;
50417;SDS011;36346;48.280;14.292;2022-07-23T02:05:55;13.43;;;13.43;;
50417;SDS011;36346;48.280;14.292;2022-07-23T02:08:25;14.06;;;14.06;;
50417;SDS011;36346;48.280;14.292;2022-07-23T02:10:53;13.99;;;13.99;;
50417;SDS011;36346;48.280;14.292;2022-07-23T02:13:21;14.26;;;14.26;;
50417;SDS011;36346;48.280;14.292;2022-07-23T02:15:49;13.44;;;13.44;;
50417;SDS011;36346;48.280;14.292;2022-07-23T02:18:17;13.23;;;13.23;;
50417;SDS011;36346;48.280;14.292;2022-07-23T02:20:45;13.63;;;13.63;;
50417;SDS011;36346;48.280;14.292;2022-07-23T02:23:13;13.90;;;13.90;;
50417;SDS011;36346;48.280;14.292;2022-07-23T02:25:41;14.32;;;14.32;;
50417;SDS011;36346;48.280;14.292;2022-07-23T02:28:10;14.60;;;14.60;;
50417;SDS011;36346;48.280;14.292;2022-07-23T02:30:38;14.37;;;14.37;;
50417;SDS011;36346;48.280;14.292;2022-07-23T02:33:07;14.23;;;14.23;;
50417;SDS011;36346;48.280;14.292;2022-07-23T02:35:36;14.67;;;14.67;;
50417;SDS011;36346;48.280;14.292;2022-07-23T02:38:07;14.70;;;14.70;;
50417;SDS011;36346;48.280;14.292;2022-07-23T02:40:35;13.86;;;13.86;;
50417;SDS011;36346;48.280;14.292;2022-07-23T02:43:03;13.91;;;13.91;;
50417;SDS011;36346;48.280;14.292;2022-07-23T02:45:32;14.13;;;14.13;;
50417;SDS011;36346;48.280;14.292;2022-07-23T02:48:00;14.03;;;14.03;;
50417;SDS011;36346;48.280;14.292;2022-07-23T02:50:28;13.50;;;13.50;;
50417;SDS011;36346;48.280;14.292;2022-07-23T02:52:58;14.01;;;14.01;;
50417;SDS011;36346;48.280;14.292;2022-07-23T02:55:26;13.99;;;13.99;;
50417;SDS011;36346;48.280;14.292;2022-07-23T02:57:54;13.41;;;13.41;;
50417;SDS011;36346;48.280;14.292;2022-07-23T03:00:23;13.74;;;13.74;;
50417;SDS011;36346;48.280;14.292;2022-07-23T03:02:51;14.14;;;14.14;;
50417;SDS011;36346;48.280;14.292;2022-07-23T03:05:19;14.11;;;14.11;;
50417;SDS011;36346;48.280;14.292;2022-07-23T03:07:48;13.81;;;13.81;;
50417;SDS011;36346;48.280;14.292;2022-07-23T03:10:17;14.58;;;14.58;;
50417;SDS011;36346;48.280;14.292;2022-07-23T03:12:45;14.47;;;14.47;;
50417;SDS011;36346;48.280;14.292;2022-07-23T03:15:13;13.73;;;13.73;;
50417;SDS011;36346;48.280;14.292;2022-07-23T03:17:41;13.85;;;13.85;;
50417;SDS011;36346;48.280;14.292;2022-07-23T03:20:09;13.77;;;13.77;;
50417;SDS011;36346;48.280;14.292;2022-07-23T03:22:39;13.84;;;13.84;;
50417;SDS011;36346;48.280;14.292;2022-07-23T03:25:07;13.82;;;13.82;;
50417;SDS011;36346;48.280;14.292;2022-07-23T03:27:35;13.36;;;13.36;;
50417;SDS011;36346;48.280;14.292;2022-07-23T03:30:04;13.09;;;13.09;;
50417;SDS011;36346;48.280;14.292;2022-07-23T03:32:34;13.63;;;13.63;;
50417;SDS011;36346;48.280;14.292;2022-07-23T03:35:02;13.35;;;13.35;;
50417;SDS011;36346;48.280;14.292;2022-07-23T03:37:34;13.29;;;13.29;;
50417;SDS011;36346;48.280;14.292;2022-07-23T03:40:02;13.57;;;13.57;;
50417;SDS011;36346;48.280;14.292;2022-07-23T03:42:30;13.77;;;13.77;;
50417;SDS011;36346;48.280;14.292;2022-07-23T03:44:58;13.47;;;13.47;;
50417;SDS011;36346;48.280;14.292;2022-07-23T03:47:26;13.54;;;13.54;;
50417;SDS011;36346;48.280;14.292;2022-07-23T03:49:54;13.59;;;13.59;;
50417;SDS011;36346;48.280;14.292;2022-07-23T03:52:22;14.07;;;14.07;;
50417;SDS011;36346;48.280;14.292;2022-07-23T03:54:52;14.14;;;14.14;;
50417;SDS011;36346;48.280;14.292;2022-07-23T03:57:23;15.25;;;15.25;;
50417;SDS011;36346;48.280;14.292;2022-07-23T03:59:51;15.06;;;15.06;;
50417;SDS011;36346;48.280;14.292;2022-07-23T04:02:19;12.62;;;12.62;;
50417;SDS011;36346;48.280;14.292;2022-07-23T04:04:47;11.92;;;11.92;;
50417;SDS011;36346;48.280;14.292;2022-07-23T04:07:16;13.13;;;13.13;;
50417;SDS011;36346;48.280;14.292;2022-07-23T04:09:45;12.79;;;12.79;;
50417;SDS011;36346;48.280;14.292;2022-07-23T04:12:13;12.84;;;12.84;;
50417;SDS011;36346;48.280;14.292;2022-07-23T04:14:42;12.98;;;12.98;;
50417;SDS011;36346;48.280;14.292;2022-07-23T04:17:11;12.92;;;12.92;;
50417;SDS011;36346;48.280;14.292;2022-07-23T04:19:42;13.27;;;13.27;;
50417;SDS011;36346;48.280;14.292;2022-07-23T04:22:13;12.89;;;12.89;;
50417;SDS011;36346;48.280;14.292;2022-07-23T04:24:42;12.76;;;12.76;;
50417;SDS011;36346;48.280;14.292;2022-07-23T04:27:10;12.97;;;12.97;;
50417;SDS011;36346;48.280;14.292;2022-07-23T04:29:38;12.28;;;12.28;;
50417;SDS011;36346;48.280;14.292;2022-07-23T04:32:06;12.57;;;12.57;;
50417;SDS011;36346;48.280;14.292;2022-07-23T04:34:34;12.22;;;12.22;;
50417;SDS011;36346;48.280;14.292;2022-07-23T04:37:03;12.00;;;12.00;;
50417;SDS011;36346;48.280;14.292;2022-07-23T04:39:32;12.02;;;12.02;;
50417;SDS011;36346;48.280;14.292;2022-07-23T04:42:00;12.23;;;12.23;;
50417;SDS011;36346;48.280;14.292;2022-07-23T04:44:30;12.14;;;12.14;;
50417;SDS011;36346;48.280;14.292;2022-07-23T04:46:59;13.10;;;13.10;;
50417;SDS011;36346;48.280;14.292;2022-07-23T04:49:28;13.27;;;13.27;;
50417;SDS011;36346;48.280;14.292;2022-07-23T04:51:56;13.12;;;13.12;;
50417;SDS011;36346;48.280;14.292;2022-07-23T04:54:24;13.52;;;13.52;;
50417;SDS011;36346;48.280;14.292;2022-07-23T04:56:52;13.74;;;13.74;;
50417;SDS011;36346;48.280;14.292;2022-07-23T04:59:20;14.34;;;14.34;;
50417;SDS011;36346;48.280;14.292;2022-07-23T05:01:54;14.84;;;14.84;;
50417;SDS011;36346;48.280;14.292;2022-07-23T05:04:22;15.05;;;15.05;;
50417;SDS011;36346;48.280;14.292;2022-07-23T05:06:50;14.48;;;14.48;;
50417;SDS011;36346;48.280;14.292;2022-07-23T05:09:18;15.83;;;15.83;;
50417;SDS011;36346;48.280;14.292;2022-07-23T05:11:46;15.61;;;15.61;;
50417;SDS011;36346;48.280;14.292;2022-07-23T05:14:14;14.57;;;14.57;;
50417;SDS011;36346;48.280;14.292;2022-07-23T05:16:43;13.90;;;13.90;;
50417;SDS011;36346;48.280;14.292;2022-07-23T05:19:17;13.70;;;13.70;;
50417;SDS011;36346;48.280;14.292;2022-07-23T05:21:48;12.10;;;12.10;;
50417;SDS011;36346;48.280;14.292;2022-07-23T05:24:16;11.87;;;11.87;;
50417;SDS011;36346;48.280;14.292;2022-07-23T05:26:44;9.78;;;9.78;;
50417;SDS011;36346;48.280;14.292;2022-07-23T05:29:12;9.41;;;9.41;;
50417;SDS011;36346;48.280;14.292;2022-07-23T05:31:40;9.15;;;9.15;;
50417;SDS011;36346;48.280;14.292;2022-07-23T05:34:08;8.95;;;8.95;;
50417;SDS011;36346;48.280;14.292;2022-07-23T05:36:44;8.38;;;8.38;;
50417;SDS011;36346;48.280;14.292;2022-07-23T05:39:12;7.24;;;7.24;;
50417;SDS011;36346;48.280;14.292;2022-07-23T05:41:40;7.19;;;7.19;;
50417;SDS011;36346;48.280;14.292;2022-07-23T05:44:09;7.00;;;7.00;;
50417;SDS011;36346;48.280;14.292;2022-07-23T05:46:40;7.32;;;7.32;;
50417;SDS011;36346;48.280;14.292;2022-07-23T05:49:12;6.86;;;6.86;;
50417;SDS011;36346;48.280;14.292;2022-07-23T05:52:03;6.65;;;6.65;;
50417;SDS011;36346;48.280;14.292;2022-07-23T05:54:58;6.66;;;6.66;;
50417;SDS011;36346;48.280;14.292;2022-07-23T05:57:26;6.35;;;6.35;;
50417;SDS011;36346;48.280;14.292;2022-07-23T05:59:54;6.71;;;6.71;;
50417;SDS011;36346;48.280;14.292;2022-07-23T06:02:22;7.12;;;7.12;;
50417;SDS011;36346;48.280;14.292;2022-07-23T06:04:50;6.91;;;6.91;;
50417;SDS011;36346;48.280;14.292;2022-07-23T06:07:30;6.47;;;6.47;;
50417;SDS011;36346;48.280;14.292;2022-07-23T06:09:58;6.50;;;6.50;;
50417;SDS011;36346;48.280;14.292;2022-07-23T06:12:26;6.37;;;6.37;;
50417;SDS011;36346;48.280;14.292;2022-07-23T06:14:55;7.06;;;7.06;;
50417;SDS011;36346;48.280;14.292;2022-07-23T06:17:23;6.73;;;6.73;;
50417;SDS011;36346;48.280;14.292;2022-07-23T06:19:52;7.08;;;7.08;;
50417;SDS011;36346;48.280;14.292;2022-07-23T06:22:21;7.42;;;7.42;;
50417;SDS011;36346;48.280;14.292;2022-07-23T06:24:50;6.72;;;6.72;;
50417;SDS011;36346;48.280;14.292;2022-07-23T06:27:21;6.90;;;6.90;;
50417;SDS011;36346;48.280;14.292;2022-07-23T06:29:53;7.22;;;7.22;;
50417;SDS011;36346;48.280;14.292;2022-07-23T06:32:21;7.38;;;7.38;;
50417;SDS011;36346;48.280;14.292;2022-07-23T06:34:49;6.77;;;6.77;;
50417;SDS011;36346;48.280;14.292;2022-07-23T06:37:17;7.03;;;7.03;;
50417;SDS011;36346;48.280;14.292;2022-07-23T06:39:46;7.05;;;7.05;;
50417;SDS011;36346;48.280;14.292;2022-07-23T06:42:14;7.38;;;7.38;;
50417;SDS011;36346;48.280;14.292;2022-07-23T06:44:44;7.24;;;7.24;;
50417;SDS011;36346;48.280;14.292;2022-07-23T06:47:16;6.62;;;6.62;;
50417;SDS011;36346;48.280;14.292;2022-07-23T06:49:45;7.29;;;7.29;;
50417;SDS011;36346;48.280;14.292;2022-07-23T06:52:13;6.81;;;6.81;;
50417;SDS011;36346;48.280;14.292;2022-07-23T06:54:41;7.06;;;7.06;;
50417;SDS011;36346;48.280;14.292;2022-07-23T06:57:09;7.22;;;7.22;;
50417;SDS011;36346;48.280;14.292;2022-07-23T06:59:37;7.24;;;7.24;;
50417;SDS011;36346;48.280;14.292;2022-07-23T07:02:09;7.37;;;7.37;;
50417;SDS011;36346;48.280;14.292;2022-07-23T07:04:37;7.83;;;7.83;;
50417;SDS011;36346;48.280;14.292;2022-07-23T07:07:05;7.48;;;7.48;;
50417;SDS011;36346;48.280;14.292;2022-07-23T07:09:33;7.79;;;7.79;;
50417;SDS011;36346;48.280;14.292;2022-07-23T07:12:01;8.30;;;8.30;;
50417;SDS011;36346;48.280;14.292;2022-07-23T07:14:29;7.72;;;7.72;;
50417;SDS011;36346;48.280;14.292;2022-07-23T07:16:57;7.73;;;7.73;;
50417;SDS011;36346;48.280;14.292;2022-07-23T07:19:25;7.46;;;7.46;;
50417;SDS011;36346;48.280;14.292;2022-07-23T07:21:53;8.01;;;8.01;;
50417;SDS011;36346;48.280;14.292;2022-07-23T07:24:21;8.54;;;8.54;;
50417;SDS011;36346;48.280;14.292;2022-07-23T07:26:51;7.11;;;7.11;;
50417;SDS011;36346;48.280;14.292;2022-07-23T07:29:19;7.98;;;7.98;;
50417;SDS011;36346;48.280;14.292;2022-07-23T07:31:47;7.56;;;7.56;;
50417;SDS011;36346;48.280;14.292;2022-07-23T07:34:15;7.02;;;7.02;;
50417;SDS011;36346;48.280;14.292;2022-07-23T07:36:44;7.25;;;7.25;;
50417;SDS011;36346;48.280;14.292;2022-07-23T07:39:12;6.88;;;6.88;;
50417;SDS011;36346;48.280;14.292;2022-07-23T07:41:40;6.48;;;6.48;;
50417;SDS011;36346;48.280;14.292;2022-07-23T07:44:08;6.40;;;6.40;;
50417;SDS011;36346;48.280;14.292;2022-07-23T07:46:36;6.45;;;6.45;;
50417;SDS011;36346;48.280;14.292;2022-07-23T07:49:04;6.56;;;6.56;;
50417;SDS011;36346;48.280;14.292;2022-07-23T07:51:32;6.65;;;6.65;;
50417;SDS011;36346;48.280;14.292;2022-07-23T07:54:00;6.52;;;6.52;;
50417;SDS011;36346;48.280;14.292;2022-07-23T07:56:29;6.86;;;6.86;;
50417;SDS011;36346;48.280;14.292;2022-07-23T07:58:58;10.03;;;10.03;;
50417;SDS011;36346;48.280;14.292;2022-07-23T08:01:26;6.94;;;6.94;;
50417;SDS011;36346;48.280;14.292;2022-07-23T08:03:55;6.97;;;6.97;;
50417;SDS011;36346;48.280;14.292;2022-07-23T08:06:23;7.27;;;7.27;;
50417;SDS011;36346;48.280;14.292;2022-07-23T08:08:51;6.71;;;6.71;;
50417;SDS011;36346;48.280;14.292;2022-07-23T08:11:19;7.15;;;7.15;;
50417;SDS011;36346;48.280;14.292;2022-07-23T08:13:48;6.93;;;6.93;;
50417;SDS011;36346;48.280;14.292;2022-07-23T08:16:16;7.04;;;7.04;;
50417;SDS011;36346;48.280;14.292;2022-07-23T08:18:44;7.79;;;7.79;;
50417;SDS011;36346;48.280;14.292;2022-07-23T08:21:12;7.58;;;7.58;;
50417;SDS011;36346;48.280;14.292;2022-07-23T08:23:40;6.56;;;6.56;;
50417;SDS011;36346;48.280;14.292;2022-07-23T08:26:08;6.72;;;6.72;;
50417;SDS011;36346;48.280;14.292;2022-07-23T08:28:36;6.44;;;6.44;;
50417;SDS011;36346;48.280;14.292;2022-07-23T08:31:04;7.39;;;7.39;;
50417;SDS011;36346;48.280;14.292;2022-07-23T08:33:33;7.88;;;7.88;;
50417;SDS011;36346;48.280;14.292;2022-07-23T08:36:02;7.70;;;7.70;;
50417;SDS011;36346;48.280;14.292;2022-07-23T08:38:32;7.80;;;7.80;;
50417;SDS011;36346;48.280;14.292;2022-07-23T08:41:01;7.47;;;7.47;;
50417;SDS011;36346;48.280;14.292;2022-07-23T08:43:32;7.16;;;7.16;;
50417;SDS011;36346;48.280;14.292;2022-07-23T08:46:02;7.56;;;7.56;;
50417;SDS011;36346;48.280;14.292;2022-07-23T08:48:32;8.61;;;8.61;;
50417;SDS011;36346;48.280;14.292;2022-07-23T08:51:02;7.62;;;7.62;;
50417;SDS011;36346;48.280;14.292;2022-07-23T08:53:32;7.60;;;7.60;;
50417;SDS011;36346;48.280;14.292;2022-07-23T08:56:03;7.00;;;7.00;;
50417;SDS011;36346;48.280;14.292;2022-07-23T08:58:35;8.18;;;8.18;;
50417;SDS011;36346;48.280;14.292;2022-07-23T09:01:03;7.22;;;7.22;;
50417;SDS011;36346;48.280;14.292;2022-07-23T09:03:32;6.81;;;6.81;;
50417;SDS011;36346;48.280;14.292;2022-07-23T09:06:03;6.81;;;6.81;;
50417;SDS011;36346;48.280;14.292;2022-07-23T09:08:35;6.62;;;6.62;;
50417;SDS011;36346;48.280;14.292;2022-07-23T09:11:06;7.12;;;7.12;;
50417;SDS011;36346;48.280;14.292;2022-07-23T09:13:52;7.10;;;7.10;;
50417;SDS011;36346;48.280;14.292;2022-07-23T09:16:24;6.54;;;6.54;;
50417;SDS011;36346;48.280;14.292;2022-07-23T09:19:06;6.10;;;6.10;;
50417;SDS011;36346;48.280;14.292;2022-07-23T09:21:35;5.99;;;5.99;;
50417;SDS011;36346;48.280;14.292;2022-07-23T09:24:06;6.08;;;6.08;;
50417;SDS011;36346;48.280;14.292;2022-07-23T09:26:36;6.26;;;6.26;;
50417;SDS011;36346;48.280;14.292;2022-07-23T09:29:13;5.93;;;5.93;;
50417;SDS011;36346;48.280;14.292;2022-07-23T09:31:51;6.36;;;6.36;;
50417;SDS011;36346;48.280;14.292;2022-07-23T09:34:27;6.27;;;6.27;;
50417;SDS011;36346;48.280;14.292;2022-07-23T09:37:13;6.54;;;6.54;;
50417;SDS011;36346;48.280;14.292;2022-07-23T09:39:46;6.71;;;6.71;;
50417;SDS011;36346;48.280;14.292;2022-07-23T09:42:19;6.78;;;6.78;;
50417;SDS011;36346;48.280;14.292;2022-07-23T09:44:55;7.01;;;7.01;;
50417;SDS011;36346;48.280;14.292;2022-07-23T09:47:25;6.36;;;6.36;;
50417;SDS011;36346;48.280;14.292;2022-07-23T09:52:32;5.57;;;5.57;;
50417;SDS011;36346;48.280;14.292;2022-07-23T09:55:03;5.65;;;5.65;;
50417;SDS011;36346;48.280;14.292;2022-07-23T09:57:33;5.81;;;5.81;;
50417;SDS011;36346;48.280;14.292;2022-07-23T10:00:03;5.61;;;5.61;;
50417;SDS011;36346;48.280;14.292;2022-07-23T10:02:33;6.04;;;6.04;;
50417;SDS011;36346;48.280;14.292;2022-07-23T10:05:20;6.22;;;6.22;;
50417;SDS011;36346;48.280;14.292;2022-07-23T10:08:10;6.67;;;6.67;;
50417;SDS011;36346;48.280;14.292;2022-07-23T10:10:58;5.72;;;5.72;;
50417;SDS011;36346;48.280;14.292;2022-07-23T10:13:47;6.33;;;6.33;;
50417;SDS011;36346;48.280;14.292;2022-07-23T10:16:15;8.41;;;8.41;;
50417;SDS011;36346;48.280;14.292;2022-07-23T10:18:53;5.02;;;5.02;;
50417;SDS011;36346;48.280;14.292;2022-07-23T10:21:38;8.01;;;8.01;;
50417;SDS011;36346;48.280;14.292;2022-07-23T10:26:49;5.52;;;5.52;;
50417;SDS011;36346;48.280;14.292;2022-07-23T10:29:42;6.10;;;6.10;;
50417;SDS011;36346;48.280;14.292;2022-07-23T10:35:33;4.75;;;4.75;;
50417;SDS011;36346;48.280;14.292;2022-07-23T10:40:54;4.36;;;4.36;;
50417;SDS011;36346;48.280;14.292;2022-07-23T10:43:24;4.48;;;4.48;;
50417;SDS011;36346;48.280;14.292;2022-07-23T10:45:52;4.01;;;4.01;;
50417;SDS011;36346;48.280;14.292;2022-07-23T10:48:22;5.22;;;5.22;;
50417;SDS011;36346;48.280;14.292;2022-07-23T10:59:26;4.87;;;4.87;;
50417;SDS011;36346;48.280;14.292;2022-07-23T11:05:02;4.92;;;4.92;;
50417;SDS011;36346;48.280;14.292;2022-07-23T11:07:36;4.67;;;4.67;;
50417;SDS011;36346;48.280;14.292;2022-07-23T11:13:47;5.10;;;5.10;;
50417;SDS011;36346;48.280;14.292;2022-07-23T11:16:17;5.27;;;5.27;;
50417;SDS011;36346;48.280;14.292;2022-07-23T11:26:44;5.78;;;5.78;;
50417;SDS011;36346;48.280;14.292;2022-07-23T11:31:56;6.98;;;6.98;;
50417;SDS011;36346;48.280;14.292;2022-07-23T11:37:04;6.57;;;6.57;;
50417;SDS011;36346;48.280;14.292;2022-07-23T11:39:34;9.53;;;9.53;;
50417;SDS011;36346;48.280;14.292;2022-07-23T11:42:04;9.06;;;9.06;;
50417;SDS011;36346;48.280;14.292;2022-07-23T11:44:37;10.78;;;10.78;;
50417;SDS011;36346;48.280;14.292;2022-07-23T11:47:07;9.73;;;9.73;;
50417;SDS011;36346;48.280;14.292;2022-07-23T11:49:37;11.94;;;11.94;;
50417;SDS011;36346;48.280;14.292;2022-07-23T11:52:05;31.93;;;31.93;;
50417;SDS011;36346;48.280;14.292;2022-07-23T11:57:26;9.94;;;9.94;;
50417;SDS011;36346;48.280;14.292;2022-07-23T11:59:57;6.86;;;6.86;;
50417;SDS011;36346;48.280;14.292;2022-07-23T12:02:40;6.75;;;6.75;;
50417;SDS011;36346;48.280;14.292;2022-07-23T12:05:13;7.08;;;7.08;;
50417;SDS011;36346;48.280;14.292;2022-07-23T12:07:52;6.95;;;6.95;;
50417;SDS011;36346;48.280;14.292;2022-07-23T12:12:53;6.87;;;6.87;;
50417;SDS011;36346;48.280;14.292;2022-07-23T12:15:24;6.64;;;6.64;;
50417;SDS011;36346;48.280;14.292;2022-07-23T12:17:59;6.76;;;6.76;;
50417;SDS011;36346;48.280;14.292;2022-07-23T12:20:29;7.84;;;7.84;;
50417;SDS011;36346;48.280;14.292;2022-07-23T12:23:01;12.09;;;12.09;;
50417;SDS011;36346;48.280;14.292;2022-07-23T12:25:35;11.07;;;11.07;;
50417;SDS011;36346;48.280;14.292;2022-07-23T12:28:08;10.33;;;10.33;;
50417;SDS011;36346;48.280;14.292;2022-07-23T12:30:42;10.27;;;10.27;;
50417;SDS011;36346;48.280;14.292;2022-07-23T12:33:14;7.67;;;7.67;;
50417;SDS011;36346;48.280;14.292;2022-07-23T12:36:03;6.71;;;6.71;;
50417;SDS011;36346;48.280;14.292;2022-07-23T12:38:43;6.84;;;6.84;;
50417;SDS011;36346;48.280;14.292;2022-07-23T12:41:15;6.90;;;6.90;;
50417;SDS011;36346;48.280;14.292;2022-07-23T12:43:44;6.75;;;6.75;;
50417;SDS011;36346;48.280;14.292;2022-07-23T12:46:17;6.60;;;6.60;;
50417;SDS011;36346;48.280;14.292;2022-07-23T12:51:27;6.22;;;6.22;;
50417;SDS011;36346;48.280;14.292;2022-07-23T12:53:59;6.53;;;6.53;;
50417;SDS011;36346;48.280;14.292;2022-07-23T12:56:34;6.54;;;6.54;;
50417;SDS011;36346;48.280;14.292;2022-07-23T12:59:09;6.07;;;6.07;;
50417;SDS011;36346;48.280;14.292;2022-07-23T13:01:39;5.84;;;5.84;;
50417;SDS011;36346;48.280;14.292;2022-07-23T13:04:18;6.35;;;6.35;;
50417;SDS011;36346;48.280;14.292;2022-07-23T13:06:49;6.28;;;6.28;;
50417;SDS011;36346;48.280;14.292;2022-07-23T13:09:29;6.32;;;6.32;;
50417;SDS011;36346;48.280;14.292;2022-07-23T13:12:03;6.22;;;6.22;;
50417;SDS011;36346;48.280;14.292;2022-07-23T13:14:32;6.46;;;6.46;;
50417;SDS011;36346;48.280;14.292;2022-07-23T13:17:00;6.29;;;6.29;;
50417;SDS011;36346;48.280;14.292;2022-07-23T13:19:28;6.74;;;6.74;;
50417;SDS011;36346;48.280;14.292;2022-07-23T13:21:56;7.23;;;7.23;;
50417;SDS011;36346;48.280;14.292;2022-07-23T13:24:25;6.98;;;6.98;;
50417;SDS011;36346;48.280;14.292;2022-07-23T13:26:53;6.48;;;6.48;;
50417;SDS011;36346;48.280;14.292;2022-07-23T13:29:21;6.80;;;6.80;;
50417;SDS011;36346;48.280;14.292;2022-07-23T13:31:49;6.71;;;6.71;;
50417;SDS011;36346;48.280;14.292;2022-07-23T13:34:18;6.66;;;6.66;;
50417;SDS011;36346;48.280;14.292;2022-07-23T13:36:46;6.61;;;6.61;;
50417;SDS011;36346;48.280;14.292;2022-07-23T13:39:14;6.98;;;6.98;;
50417;SDS011;36346;48.280;14.292;2022-07-23T13:41:43;6.29;;;6.29;;
50417;SDS011;36346;48.280;14.292;2022-07-23T13:44:17;6.93;;;6.93;;
50417;SDS011;36346;48.280;14.292;2022-07-23T13:46:49;7.15;;;7.15;;
50417;SDS011;36346;48.280;14.292;2022-07-23T13:49:18;6.96;;;6.96;;
50417;SDS011;36346;48.280;14.292;2022-07-23T13:51:46;7.17;;;7.17;;
50417;SDS011;36346;48.280;14.292;2022-07-23T13:54:15;7.06;;;7.06;;
50417;SDS011;36346;48.280;14.292;2022-07-23T13:56:43;6.89;;;6.89;;
50417;SDS011;36346;48.280;14.292;2022-07-23T13:59:11;6.80;;;6.80;;
50417;SDS011;36346;48.280;14.292;2022-07-23T14:01:39;6.67;;;6.67;;
50417;SDS011;36346;48.280;14.292;2022-07-23T14:04:27;6.73;;;6.73;;
50417;SDS011;36346;48.280;14.292;2022-07-23T14:06:56;7.22;;;7.22;;
50417;SDS011;36346;48.280;14.292;2022-07-23T14:09:24;7.10;;;7.10;;
50417;SDS011;36346;48.280;14.292;2022-07-23T14:11:52;7.60;;;7.60;;
50417;SDS011;36346;48.280;14.292;2022-07-23T14:14:21;7.33;;;7.33;;
50417;SDS011;36346;48.280;14.292;2022-07-23T14:16:48;7.19;;;7.19;;
50417;SDS011;36346;48.280;14.292;2022-07-23T14:19:17;7.09;;;7.09;;
50417;SDS011;36346;48.280;14.292;2022-07-23T14:21:46;7.40;;;7.40;;
50417;SDS011;36346;48.280;14.292;2022-07-23T14:24:16;7.69;;;7.69;;
50417;SDS011;36346;48.280;14.292;2022-07-23T14:26:45;7.42;;;7.42;;
50417;SDS011;36346;48.280;14.292;2022-07-23T14:29:13;7.33;;;7.33;;
50417;SDS011;36346;48.280;14.292;2022-07-23T14:31:42;7.28;;;7.28;;
50417;SDS011;36346;48.280;14.292;2022-07-23T14:34:10;7.17;;;7.17;;
50417;SDS011;36346;48.280;14.292;2022-07-23T14:36:39;7.85;;;7.85;;
50417;SDS011;36346;48.280;14.292;2022-07-23T14:39:07;7.74;;;7.74;;
50417;SDS011;36346;48.280;14.292;2022-07-23T14:41:38;7.46;;;7.46;;
50417;SDS011;36346;48.280;14.292;2022-07-23T14:44:07;7.55;;;7.55;;
50417;SDS011;36346;48.280;14.292;2022-07-23T14:46:36;7.47;;;7.47;;
50417;SDS011;36346;48.280;14.292;2022-07-23T14:49:05;7.44;;;7.44;;
50417;SDS011;36346;48.280;14.292;2022-07-23T14:51:35;7.71;;;7.71;;
50417;SDS011;36346;48.280;14.292;2022-07-23T14:54:04;7.58;;;7.58;;
50417;SDS011;36346;48.280;14.292;2022-07-23T14:56:32;7.72;;;7.72;;
50417;SDS011;36346;48.280;14.292;2022-07-23T14:59:01;7.44;;;7.44;;
50417;SDS011;36346;48.280;14.292;2022-07-23T15:01:31;7.26;;;7.26;;
50417;SDS011;36346;48.280;14.292;2022-07-23T15:04:02;7.28;;;7.28;;
50417;SDS011;36346;48.280;14.292;2022-07-23T15:06:51;7.44;;;7.44;;
50417;SDS011;36346;48.280;14.292;2022-07-23T15:09:20;7.67;;;7.67;;
50417;SDS011;36346;48.280;14.292;2022-07-23T15:11:48;7.76;;;7.76;;
50417;SDS011;36346;48.280;14.292;2022-07-23T15:14:16;7.30;;;7.30;;
50417;SDS011;36346;48.280;14.292;2022-07-23T15:16:54;6.88;;;6.88;;
50417;SDS011;36346;48.280;14.292;2022-07-23T15:19:23;7.10;;;7.10;;
50417;SDS011;36346;48.280;14.292;2022-07-23T15:21:51;7.19;;;7.19;;
50417;SDS011;36346;48.280;14.292;2022-07-23T15:24:19;7.00;;;7.00;;
50417;SDS011;36346;48.280;14.292;2022-07-23T15:26:47;7.35;;;7.35;;
50417;SDS011;36346;48.280;14.292;2022-07-23T15:29:15;7.28;;;7.28;;